Terminal Aerodrome Forecast
Issued by NWS Sterling, VA

Current Version | Previous Version | Text Only | Print | Product List | Glossary Off
Versions: 1 2 3 4 5 6 7 8 9 10 11 12 13 14 15 16 17 18 19 20 21 22

000
FTUS41 KLWX 202326
TAFMRB
TAF
KMRB 202326Z 2100/2124 16004KT P6SM VCTS BKN050CB
     FM210200 19005KT P6SM BKN250
     FM211400 25008KT P6SM BKN040
     FM211800 27010G17KT P6SM SCT050
     FM212100 29010G17KT P6SM SCT250=

USA.gov is the U.S. government's official web portal to all federal, state and local government web resources and services.